首页
METAR-TAF:

METAR-TAF

机场 :

阿雅克肖, 法国

纬度: 41-55N, 经度: 008-48E, 海拔: 6米

当前天气观测

该预报发布于27分钟前的08:30 UTC
风速6节,风向,在东北东转东南之间变化
温度 28°C
湿度 51%
气压 1012 hPa
能见度10公里或以上
1500米以下无云,无积雨云

METAR: LFKJ 220830Z AUTO 08006KT 050V120 CAVOK 28/17 Q1012 NOSIG

时间: 10:57 (08:57 UTC)

预报

该预报发布于57分钟前的08:00 UTC
预报有效从22日的 09点(UTC)到 23日的 09点(UTC)
风速6节,风向北转东北
能见度10公里或以上
少量云层高于2500英尺
散云层高于7000英尺
多云层高于15000英尺
短暂存在
从 22日的 11点(UTC)到 22日的 15点(UTC)
散云层高于1300英尺
多云层高于2000英尺, 积雨云.
雷暴, 雨
短暂存在
从 23日的 04点(UTC)到 23日的 06点(UTC)
风速10节,风向多变,有时为20节阵风
散云层高于1000英尺
多云层高于1700英尺, 塔状积云.
阵雨

TAF: LFKJ 220800Z 2209/2309 03006KT 9999 FEW025 SCT070 BKN150 TEMPO 2211/2215 TSRA SCT013 BKN020CB TEMPO 2304/2306 VRB10G20KT SHRA SCT010 BKN017TCU

超过4000个机场的气象观测和天气预报(METAR&TAF报告)。

可查询的气象台以黄色和红色小点在地图上表示。

将鼠标移到小点上方,可查看气象台名称。

然后点击查看天气观测和预报。

如需切换地图:点击带黑十字的绿色按钮放大地图;点击带横线的绿色按钮缩小地图;或者点击绿色箭头查看邻近地区的地图。


METAR-TAF: